sensor_id;sensor_type;location;lat;lon;timestamp;P1;durP1;ratioP1;P2;durP2;ratioP2
57899;SDS011;60605;53.716;19.940;2024-02-21T00:03:40;28.30;;;13.30;;
57899;SDS011;60605;53.716;19.940;2024-02-21T01:26:46;11.10;;;4.20;;
57899;SDS011;60605;53.716;19.940;2024-02-21T01:31:49;10.60;;;4.20;;
57899;SDS011;60605;53.716;19.940;2024-02-21T01:36:53;12.20;;;4.00;;
57899;SDS011;60605;53.716;19.940;2024-02-21T01:41:56;19.20;;;6.30;;
57899;SDS011;60605;53.716;19.940;2024-02-21T01:47:00;11.10;;;6.40;;
57899;SDS011;60605;53.716;19.940;2024-02-21T01:52:04;13.80;;;5.70;;
57899;SDS011;60605;53.716;19.940;2024-02-21T01:57:08;14.10;;;5.30;;
57899;SDS011;60605;53.716;19.940;2024-02-21T02:02:11;11.80;;;5.40;;
57899;SDS011;60605;53.716;19.940;2024-02-21T02:07:15;16.40;;;5.50;;
57899;SDS011;60605;53.716;19.940;2024-02-21T02:12:18;19.60;;;6.40;;
57899;SDS011;60605;53.716;19.940;2024-02-21T02:17:22;16.90;;;6.80;;
57899;SDS011;60605;53.716;19.940;2024-02-21T02:22:28;10.90;;;5.40;;
57899;SDS011;60605;53.716;19.940;2024-02-21T02:27:32;14.40;;;6.30;;
57899;SDS011;60605;53.716;19.940;2024-02-21T02:32:35;21.40;;;7.20;;
57899;SDS011;60605;53.716;19.940;2024-02-21T02:37:39;16.60;;;6.90;;
57899;SDS011;60605;53.716;19.940;2024-02-21T02:42:42;23.30;;;9.10;;
57899;SDS011;60605;53.716;19.940;2024-02-21T02:47:46;16.80;;;8.40;;
57899;SDS011;60605;53.716;19.940;2024-02-21T02:52:50;20.10;;;8.80;;
57899;SDS011;60605;53.716;19.940;2024-02-21T02:57:53;24.00;;;9.10;;
57899;SDS011;60605;53.716;19.940;2024-02-21T03:02:57;21.50;;;8.30;;
57899;SDS011;60605;53.716;19.940;2024-02-21T03:08:00;21.30;;;7.60;;
57899;SDS011;60605;53.716;19.940;2024-02-21T03:13:04;19.90;;;8.80;;
57899;SDS011;60605;53.716;19.940;2024-02-21T03:18:07;24.80;;;8.70;;
57899;SDS011;60605;53.716;19.940;2024-02-21T03:23:11;24.70;;;8.90;;
57899;SDS011;60605;53.716;19.940;2024-02-21T03:28:15;23.90;;;9.80;;
57899;SDS011;60605;53.716;19.940;2024-02-21T03:33:19;22.80;;;8.80;;
57899;SDS011;60605;53.716;19.940;2024-02-21T03:38:24;22.00;;;8.80;;
57899;SDS011;60605;53.716;19.940;2024-02-21T03:43:27;21.30;;;8.70;;
57899;SDS011;60605;53.716;19.940;2024-02-21T03:48:31;23.30;;;8.80;;
57899;SDS011;60605;53.716;19.940;2024-02-21T03:53:34;30.10;;;9.60;;
57899;SDS011;60605;53.716;19.940;2024-02-21T03:58:38;21.80;;;8.60;;
57899;SDS011;60605;53.716;19.940;2024-02-21T04:03:42;15.50;;;7.20;;
57899;SDS011;60605;53.716;19.940;2024-02-21T04:08:48;24.50;;;8.80;;
57899;SDS011;60605;53.716;19.940;2024-02-21T04:13:51;20.70;;;9.10;;
57899;SDS011;60605;53.716;19.940;2024-02-21T04:18:54;22.60;;;8.00;;
57899;SDS011;60605;53.716;19.940;2024-02-21T04:23:58;22.90;;;8.50;;
57899;SDS011;60605;53.716;19.940;2024-02-21T04:29:01;21.00;;;8.40;;
57899;SDS011;60605;53.716;19.940;2024-02-21T04:34:06;21.80;;;8.00;;
57899;SDS011;60605;53.716;19.940;2024-02-21T04:39:10;26.30;;;9.70;;
57899;SDS011;60605;53.716;19.940;2024-02-21T04:44:14;26.30;;;9.90;;
57899;SDS011;60605;53.716;19.940;2024-02-21T04:49:18;25.30;;;10.60;;
57899;SDS011;60605;53.716;19.940;2024-02-21T04:54:22;25.80;;;9.90;;
57899;SDS011;60605;53.716;19.940;2024-02-21T04:59:26;27.00;;;9.50;;
57899;SDS011;60605;53.716;19.940;2024-02-21T05:04:29;25.90;;;10.70;;
57899;SDS011;60605;53.716;19.940;2024-02-21T05:09:32;24.80;;;11.00;;
57899;SDS011;60605;53.716;19.940;2024-02-21T05:14:36;25.80;;;10.90;;
57899;SDS011;60605;53.716;19.940;2024-02-21T05:19:40;25.80;;;11.30;;
57899;SDS011;60605;53.716;19.940;2024-02-21T05:24:43;26.60;;;12.20;;
57899;SDS011;60605;53.716;19.940;2024-02-21T05:29:47;28.20;;;11.30;;
57899;SDS011;60605;53.716;19.940;2024-02-21T05:34:51;28.00;;;12.50;;
57899;SDS011;60605;53.716;19.940;2024-02-21T05:39:54;27.50;;;11.90;;
57899;SDS011;60605;53.716;19.940;2024-02-21T05:44:58;32.80;;;12.70;;
57899;SDS011;60605;53.716;19.940;2024-02-21T05:50:02;36.90;;;13.30;;
57899;SDS011;60605;53.716;19.940;2024-02-21T05:55:06;29.70;;;12.40;;
57899;SDS011;60605;53.716;19.940;2024-02-21T06:00:10;25.40;;;10.20;;
57899;SDS011;60605;53.716;19.940;2024-02-21T06:05:14;28.80;;;12.10;;
57899;SDS011;60605;53.716;19.940;2024-02-21T06:10:17;31.30;;;12.80;;
57899;SDS011;60605;53.716;19.940;2024-02-21T06:15:21;26.80;;;11.20;;
57899;SDS011;60605;53.716;19.940;2024-02-21T06:20:24;29.90;;;11.90;;
57899;SDS011;60605;53.716;19.940;2024-02-21T06:25:28;23.90;;;10.50;;
57899;SDS011;60605;53.716;19.940;2024-02-21T06:30:31;35.90;;;13.00;;
57899;SDS011;60605;53.716;19.940;2024-02-21T06:35:35;27.60;;;10.90;;
57899;SDS011;60605;53.716;19.940;2024-02-21T06:40:38;27.70;;;11.10;;
57899;SDS011;60605;53.716;19.940;2024-02-21T06:45:43;28.80;;;12.00;;
57899;SDS011;60605;53.716;19.940;2024-02-21T06:50:50;29.40;;;12.20;;
57899;SDS011;60605;53.716;19.940;2024-02-21T06:55:54;24.50;;;10.30;;
57899;SDS011;60605;53.716;19.940;2024-02-21T07:00:57;21.80;;;10.20;;
57899;SDS011;60605;53.716;19.940;2024-02-21T07:06:01;30.20;;;11.20;;
57899;SDS011;60605;53.716;19.940;2024-02-21T07:11:05;20.40;;;10.80;;
57899;SDS011;60605;53.716;19.940;2024-02-21T07:16:09;23.30;;;11.10;;
57899;SDS011;60605;53.716;19.940;2024-02-21T07:21:12;22.10;;;9.90;;
57899;SDS011;60605;53.716;19.940;2024-02-21T07:26:16;38.00;;;12.20;;
57899;SDS011;60605;53.716;19.940;2024-02-21T07:31:19;28.00;;;13.50;;
57899;SDS011;60605;53.716;19.940;2024-02-21T07:36:28;21.80;;;11.20;;
57899;SDS011;60605;53.716;19.940;2024-02-21T07:41:35;25.50;;;12.40;;
57899;SDS011;60605;53.716;19.940;2024-02-21T07:46:38;26.30;;;11.70;;
57899;SDS011;60605;53.716;19.940;2024-02-21T07:51:42;24.80;;;11.40;;
57899;SDS011;60605;53.716;19.940;2024-02-21T07:56:45;20.60;;;12.60;;
57899;SDS011;60605;53.716;19.940;2024-02-21T08:01:48;35.00;;;15.90;;
57899;SDS011;60605;53.716;19.940;2024-02-21T08:06:52;43.30;;;16.60;;
57899;SDS011;60605;53.716;19.940;2024-02-21T08:11:56;30.50;;;15.20;;
57899;SDS011;60605;53.716;19.940;2024-02-21T08:17:00;31.90;;;14.20;;
57899;SDS011;60605;53.716;19.940;2024-02-21T08:22:04;23.10;;;12.30;;
57899;SDS011;60605;53.716;19.940;2024-02-21T08:27:07;34.80;;;15.40;;
57899;SDS011;60605;53.716;19.940;2024-02-21T08:32:11;31.60;;;14.20;;
57899;SDS011;60605;53.716;19.940;2024-02-21T08:37:14;28.60;;;12.90;;
57899;SDS011;60605;53.716;19.940;2024-02-21T08:42:20;25.30;;;11.90;;
57899;SDS011;60605;53.716;19.940;2024-02-21T08:47:23;16.70;;;11.30;;
57899;SDS011;60605;53.716;19.940;2024-02-21T08:52:27;20.60;;;12.30;;
57899;SDS011;60605;53.716;19.940;2024-02-21T08:57:30;22.90;;;11.40;;
57899;SDS011;60605;53.716;19.940;2024-02-21T09:02:39;30.60;;;13.40;;
57899;SDS011;60605;53.716;19.940;2024-02-21T09:07:46;25.90;;;12.50;;
57899;SDS011;60605;53.716;19.940;2024-02-21T09:12:50;21.40;;;11.10;;
57899;SDS011;60605;53.716;19.940;2024-02-21T09:17:53;27.00;;;14.90;;
57899;SDS011;60605;53.716;19.940;2024-02-21T09:22:57;26.80;;;12.60;;
57899;SDS011;60605;53.716;19.940;2024-02-21T09:28:01;27.30;;;12.90;;
57899;SDS011;60605;53.716;19.940;2024-02-21T09:33:05;29.90;;;16.70;;
57899;SDS011;60605;53.716;19.940;2024-02-21T09:38:09;27.50;;;16.50;;
57899;SDS011;60605;53.716;19.940;2024-02-21T09:43:13;30.90;;;15.70;;
57899;SDS011;60605;53.716;19.940;2024-02-21T09:48:36;31.70;;;14.60;;
57899;SDS011;60605;53.716;19.940;2024-02-21T09:53:51;30.30;;;15.90;;
57899;SDS011;60605;53.716;19.940;2024-02-21T09:59:14;28.00;;;14.60;;
57899;SDS011;60605;53.716;19.940;2024-02-21T10:04:19;26.00;;;15.20;;
57899;SDS011;60605;53.716;19.940;2024-02-21T10:09:24;34.10;;;16.80;;
57899;SDS011;60605;53.716;19.940;2024-02-21T10:14:31;33.70;;;16.00;;
57899;SDS011;60605;53.716;19.940;2024-02-21T10:19:35;39.50;;;19.10;;
57899;SDS011;60605;53.716;19.940;2024-02-21T10:24:38;31.80;;;18.10;;
57899;SDS011;60605;53.716;19.940;2024-02-21T10:29:49;31.20;;;17.20;;
57899;SDS011;60605;53.716;19.940;2024-02-21T10:35:04;34.00;;;16.30;;
57899;SDS011;60605;53.716;19.940;2024-02-21T10:40:08;28.00;;;15.10;;
57899;SDS011;60605;53.716;19.940;2024-02-21T10:45:11;29.20;;;15.80;;
57899;SDS011;60605;53.716;19.940;2024-02-21T10:50:18;29.00;;;17.00;;
57899;SDS011;60605;53.716;19.940;2024-02-21T10:55:26;25.50;;;13.90;;
57899;SDS011;60605;53.716;19.940;2024-02-21T11:00:38;30.60;;;15.90;;
57899;SDS011;60605;53.716;19.940;2024-02-21T11:05:43;28.10;;;15.20;;
57899;SDS011;60605;53.716;19.940;2024-02-21T11:10:48;21.90;;;13.50;;
57899;SDS011;60605;53.716;19.940;2024-02-21T11:15:52;23.30;;;14.00;;
57899;SDS011;60605;53.716;19.940;2024-02-21T11:20:58;17.50;;;10.60;;
57899;SDS011;60605;53.716;19.940;2024-02-21T11:26:08;26.10;;;15.50;;
57899;SDS011;60605;53.716;19.940;2024-02-21T11:31:13;29.90;;;15.70;;
57899;SDS011;60605;53.716;19.940;2024-02-21T11:36:24;21.50;;;15.00;;
57899;SDS011;60605;53.716;19.940;2024-02-21T11:41:31;26.10;;;15.20;;
57899;SDS011;60605;53.716;19.940;2024-02-21T11:46:35;21.80;;;13.80;;
57899;SDS011;60605;53.716;19.940;2024-02-21T11:51:39;21.90;;;14.50;;
57899;SDS011;60605;53.716;19.940;2024-02-21T11:56:42;22.00;;;14.40;;
57899;SDS011;60605;53.716;19.940;2024-02-21T12:01:46;21.20;;;14.20;;
57899;SDS011;60605;53.716;19.940;2024-02-21T12:06:52;19.00;;;12.10;;
57899;SDS011;60605;53.716;19.940;2024-02-21T12:11:58;22.10;;;13.10;;
57899;SDS011;60605;53.716;19.940;2024-02-21T12:17:03;20.70;;;13.90;;
57899;SDS011;60605;53.716;19.940;2024-02-21T12:22:07;22.80;;;12.90;;
57899;SDS011;60605;53.716;19.940;2024-02-21T12:27:11;26.50;;;13.50;;
57899;SDS011;60605;53.716;19.940;2024-02-21T12:32:15;20.50;;;13.30;;
57899;SDS011;60605;53.716;19.940;2024-02-21T12:37:19;23.40;;;14.60;;
57899;SDS011;60605;53.716;19.940;2024-02-21T12:42:25;22.10;;;13.20;;
57899;SDS011;60605;53.716;19.940;2024-02-21T12:47:29;21.10;;;13.10;;
57899;SDS011;60605;53.716;19.940;2024-02-21T12:52:34;21.50;;;12.30;;
57899;SDS011;60605;53.716;19.940;2024-02-21T12:57:37;20.00;;;12.90;;
57899;SDS011;60605;53.716;19.940;2024-02-21T13:02:41;20.90;;;11.90;;
57899;SDS011;60605;53.716;19.940;2024-02-21T13:07:46;21.00;;;12.20;;
57899;SDS011;60605;53.716;19.940;2024-02-21T13:12:49;20.90;;;12.20;;
57899;SDS011;60605;53.716;19.940;2024-02-21T13:17:53;18.70;;;11.20;;
57899;SDS011;60605;53.716;19.940;2024-02-21T13:22:57;14.20;;;10.70;;
57899;SDS011;60605;53.716;19.940;2024-02-21T13:28:01;19.50;;;12.00;;
57899;SDS011;60605;53.716;19.940;2024-02-21T13:33:06;15.00;;;11.20;;
57899;SDS011;60605;53.716;19.940;2024-02-21T13:38:10;14.20;;;11.00;;
57899;SDS011;60605;53.716;19.940;2024-02-21T13:43:14;17.40;;;12.20;;
57899;SDS011;60605;53.716;19.940;2024-02-21T13:48:17;16.10;;;9.40;;
57899;SDS011;60605;53.716;19.940;2024-02-21T13:53:21;15.50;;;9.90;;
57899;SDS011;60605;53.716;19.940;2024-02-21T13:58:25;14.10;;;11.10;;
57899;SDS011;60605;53.716;19.940;2024-02-21T14:03:29;12.60;;;9.10;;
57899;SDS011;60605;53.716;19.940;2024-02-21T14:08:33;20.30;;;11.20;;
57899;SDS011;60605;53.716;19.940;2024-02-21T14:13:37;12.90;;;10.60;;
57899;SDS011;60605;53.716;19.940;2024-02-21T14:18:41;17.90;;;11.40;;
57899;SDS011;60605;53.716;19.940;2024-02-21T14:23:46;18.90;;;12.40;;
57899;SDS011;60605;53.716;19.940;2024-02-21T14:28:50;19.50;;;12.80;;
57899;SDS011;60605;53.716;19.940;2024-02-21T14:33:54;21.70;;;13.20;;
57899;SDS011;60605;53.716;19.940;2024-02-21T14:38:57;20.50;;;12.80;;
57899;SDS011;60605;53.716;19.940;2024-02-21T14:44:02;19.80;;;13.80;;
57899;SDS011;60605;53.716;19.940;2024-02-21T14:49:07;16.20;;;10.30;;
57899;SDS011;60605;53.716;19.940;2024-02-21T14:54:10;15.20;;;11.90;;
57899;SDS011;60605;53.716;19.940;2024-02-21T14:59:15;17.20;;;13.20;;
57899;SDS011;60605;53.716;19.940;2024-02-21T15:04:35;18.90;;;13.10;;
57899;SDS011;60605;53.716;19.940;2024-02-21T15:09:38;18.90;;;13.20;;
57899;SDS011;60605;53.716;19.940;2024-02-21T15:14:42;20.10;;;14.10;;
57899;SDS011;60605;53.716;19.940;2024-02-21T15:19:46;43.80;;;26.10;;
57899;SDS011;60605;53.716;19.940;2024-02-21T15:24:51;66.30;;;36.60;;
57899;SDS011;60605;53.716;19.940;2024-02-21T15:29:55;234.40;;;98.70;;
57899;SDS011;60605;53.716;19.940;2024-02-21T15:35:00;29.50;;;20.30;;
57899;SDS011;60605;53.716;19.940;2024-02-21T15:40:04;29.00;;;20.00;;
57899;SDS011;60605;53.716;19.940;2024-02-21T15:45:12;19.50;;;14.70;;
57899;SDS011;60605;53.716;19.940;2024-02-21T15:50:16;21.50;;;16.50;;
57899;SDS011;60605;53.716;19.940;2024-02-21T15:55:21;15.30;;;12.30;;
57899;SDS011;60605;53.716;19.940;2024-02-21T16:00:27;20.20;;;13.30;;
57899;SDS011;60605;53.716;19.940;2024-02-21T16:05:30;14.70;;;11.50;;
57899;SDS011;60605;53.716;19.940;2024-02-21T16:10:34;16.40;;;12.60;;
57899;SDS011;60605;53.716;19.940;2024-02-21T16:15:39;18.30;;;12.80;;
57899;SDS011;60605;53.716;19.940;2024-02-21T16:20:46;15.80;;;11.30;;
57899;SDS011;60605;53.716;19.940;2024-02-21T16:25:53;20.50;;;13.00;;
57899;SDS011;60605;53.716;19.940;2024-02-21T16:30:57;21.40;;;12.60;;
57899;SDS011;60605;53.716;19.940;2024-02-21T16:36:01;19.60;;;13.40;;
57899;SDS011;60605;53.716;19.940;2024-02-21T16:41:05;16.40;;;11.90;;
57899;SDS011;60605;53.716;19.940;2024-02-21T16:46:08;29.90;;;17.50;;
57899;SDS011;60605;53.716;19.940;2024-02-21T16:51:12;57.30;;;34.50;;
57899;SDS011;60605;53.716;19.940;2024-02-21T16:56:16;37.20;;;29.30;;
57899;SDS011;60605;53.716;19.940;2024-02-21T17:01:21;30.70;;;20.60;;
57899;SDS011;60605;53.716;19.940;2024-02-21T17:06:25;25.60;;;17.40;;
57899;SDS011;60605;53.716;19.940;2024-02-21T17:11:29;26.20;;;17.20;;
57899;SDS011;60605;53.716;19.940;2024-02-21T17:16:33;18.20;;;13.50;;
57899;SDS011;60605;53.716;19.940;2024-02-21T17:21:37;129.20;;;72.60;;
57899;SDS011;60605;53.716;19.940;2024-02-21T17:26:41;262.00;;;142.50;;
57899;SDS011;60605;53.716;19.940;2024-02-21T17:31:45;415.90;;;255.20;;
57899;SDS011;60605;53.716;19.940;2024-02-21T17:36:48;179.10;;;107.20;;
57899;SDS011;60605;53.716;19.940;2024-02-21T17:41:52;72.10;;;53.10;;
57899;SDS011;60605;53.716;19.940;2024-02-21T17:46:56;37.80;;;31.70;;
57899;SDS011;60605;53.716;19.940;2024-02-21T17:52:00;24.20;;;17.70;;
57899;SDS011;60605;53.716;19.940;2024-02-21T17:57:03;126.70;;;59.70;;
57899;SDS011;60605;53.716;19.940;2024-02-21T18:02:07;41.50;;;26.10;;
57899;SDS011;60605;53.716;19.940;2024-02-21T18:07:11;24.70;;;17.00;;
57899;SDS011;60605;53.716;19.940;2024-02-21T18:12:16;21.90;;;14.70;;
57899;SDS011;60605;53.716;19.940;2024-02-21T18:17:20;22.40;;;14.90;;
57899;SDS011;60605;53.716;19.940;2024-02-21T18:22:23;23.90;;;14.00;;
57899;SDS011;60605;53.716;19.940;2024-02-21T18:27:28;27.60;;;16.90;;
57899;SDS011;60605;53.716;19.940;2024-02-21T18:32:33;24.90;;;16.30;;
57899;SDS011;60605;53.716;19.940;2024-02-21T18:37:37;20.70;;;15.60;;
57899;SDS011;60605;53.716;19.940;2024-02-21T18:42:41;23.20;;;15.50;;
57899;SDS011;60605;53.716;19.940;2024-02-21T18:47:44;31.50;;;16.70;;
57899;SDS011;60605;53.716;19.940;2024-02-21T18:52:54;38.80;;;22.30;;
57899;SDS011;60605;53.716;19.940;2024-02-21T18:58:02;26.30;;;16.10;;
57899;SDS011;60605;53.716;19.940;2024-02-21T19:03:07;30.20;;;17.60;;
57899;SDS011;60605;53.716;19.940;2024-02-21T19:08:10;28.60;;;18.10;;
57899;SDS011;60605;53.716;19.940;2024-02-21T19:13:14;28.00;;;18.10;;
57899;SDS011;60605;53.716;19.940;2024-02-21T19:18:17;60.60;;;29.10;;
57899;SDS011;60605;53.716;19.940;2024-02-21T19:23:23;57.10;;;29.80;;
57899;SDS011;60605;53.716;19.940;2024-02-21T19:28:27;50.30;;;30.80;;
57899;SDS011;60605;53.716;19.940;2024-02-21T19:33:32;46.50;;;27.90;;
57899;SDS011;60605;53.716;19.940;2024-02-21T19:38:36;69.70;;;43.60;;
57899;SDS011;60605;53.716;19.940;2024-02-21T19:43:39;36.00;;;19.70;;
57899;SDS011;60605;53.716;19.940;2024-02-21T19:48:43;29.30;;;17.30;;
57899;SDS011;60605;53.716;19.940;2024-02-21T19:53:47;39.10;;;26.10;;
57899;SDS011;60605;53.716;19.940;2024-02-21T19:59:06;30.00;;;21.70;;
57899;SDS011;60605;53.716;19.940;2024-02-21T20:04:12;39.40;;;27.00;;
57899;SDS011;60605;53.716;19.940;2024-02-21T20:09:15;34.60;;;19.60;;
57899;SDS011;60605;53.716;19.940;2024-02-21T20:14:19;28.90;;;18.70;;
57899;SDS011;60605;53.716;19.940;2024-02-21T20:19:25;26.30;;;17.80;;
57899;SDS011;60605;53.716;19.940;2024-02-21T20:24:29;33.50;;;19.20;;
57899;SDS011;60605;53.716;19.940;2024-02-21T20:29:42;35.40;;;20.60;;
57899;SDS011;60605;53.716;19.940;2024-02-21T20:34:46;30.00;;;19.90;;
57899;SDS011;60605;53.716;19.940;2024-02-21T20:39:52;30.00;;;18.90;;
57899;SDS011;60605;53.716;19.940;2024-02-21T20:44:57;29.50;;;17.20;;
57899;SDS011;60605;53.716;19.940;2024-02-21T20:50:01;30.50;;;16.30;;
57899;SDS011;60605;53.716;19.940;2024-02-21T20:55:06;51.10;;;31.60;;
57899;SDS011;60605;53.716;19.940;2024-02-21T21:00:12;206.00;;;120.60;;
57899;SDS011;60605;53.716;19.940;2024-02-21T21:05:16;273.80;;;146.70;;
57899;SDS011;60605;53.716;19.940;2024-02-21T21:10:24;54.70;;;30.80;;
57899;SDS011;60605;53.716;19.940;2024-02-21T21:15:27;55.70;;;26.60;;
57899;SDS011;60605;53.716;19.940;2024-02-21T21:20:32;130.00;;;73.90;;
57899;SDS011;60605;53.716;19.940;2024-02-21T21:25:37;63.70;;;30.60;;
57899;SDS011;60605;53.716;19.940;2024-02-21T21:30:41;111.40;;;53.00;;
57899;SDS011;60605;53.716;19.940;2024-02-21T21:35:45;64.70;;;31.60;;
57899;SDS011;60605;53.716;19.940;2024-02-21T21:40:55;64.60;;;28.10;;
57899;SDS011;60605;53.716;19.940;2024-02-21T21:46:04;52.40;;;34.80;;
57899;SDS011;60605;53.716;19.940;2024-02-21T21:51:19;58.10;;;25.80;;
57899;SDS011;60605;53.716;19.940;2024-02-21T21:56:23;96.30;;;59.50;;
57899;SDS011;60605;53.716;19.940;2024-02-21T22:01:27;83.10;;;31.30;;
57899;SDS011;60605;53.716;19.940;2024-02-21T22:06:50;212.80;;;72.10;;
57899;SDS011;60605;53.716;19.940;2024-02-21T22:17:04;312.20;;;96.60;;
57899;SDS011;60605;53.716;19.940;2024-02-21T22:22:11;131.50;;;39.90;;
57899;SDS011;60605;53.716;19.940;2024-02-21T22:27:29;55.80;;;26.80;;
57899;SDS011;60605;53.716;19.940;2024-02-21T22:32:40;52.20;;;23.00;;
57899;SDS011;60605;53.716;19.940;2024-02-21T22:37:47;39.00;;;21.60;;
57899;SDS011;60605;53.716;19.940;2024-02-21T22:42:52;64.70;;;27.50;;
57899;SDS011;60605;53.716;19.940;2024-02-21T22:47:59;40.30;;;24.00;;
57899;SDS011;60605;53.716;19.940;2024-02-21T22:53:11;77.50;;;29.70;;
57899;SDS011;60605;53.716;19.940;2024-02-21T22:58:24;48.30;;;23.80;;
57899;SDS011;60605;53.716;19.940;2024-02-21T23:03:31;86.10;;;30.90;;
57899;SDS011;60605;53.716;19.940;2024-02-21T23:08:40;51.00;;;26.30;;
57899;SDS011;60605;53.716;19.940;2024-02-21T23:13:46;111.10;;;47.10;;
57899;SDS011;60605;53.716;19.940;2024-02-21T23:18:51;297.50;;;77.90;;
57899;SDS011;60605;53.716;19.940;2024-02-21T23:24:00;121.20;;;36.50;;
57899;SDS011;60605;53.716;19.940;2024-02-21T23:29:04;51.10;;;20.00;;
57899;SDS011;60605;53.716;19.940;2024-02-21T23:34:11;262.80;;;67.50;;
57899;SDS011;60605;53.716;19.940;2024-02-21T23:39:19;88.00;;;29.40;;
57899;SDS011;60605;53.716;19.940;2024-02-21T23:44:25;59.10;;;23.90;;
57899;SDS011;60605;53.716;19.940;2024-02-21T23:49:29;148.70;;;39.90;;
57899;SDS011;60605;53.716;19.940;2024-02-21T23:54:33;44.10;;;18.00;;
57899;SDS011;60605;53.716;19.940;2024-02-21T23:59:37;28.60;;;16.10;;
